createdAt,value
2023-04-15T00:01:27.084Z,81.48
2023-04-15T00:04:20.710Z,81.19
2023-04-15T00:07:16.470Z,80.96
2023-04-15T00:10:12.353Z,80.66
2023-04-15T00:13:06.322Z,80.44
2023-04-15T00:15:59.024Z,80.18
2023-04-15T00:18:52.070Z,79.97
2023-04-15T00:21:45.299Z,79.90
2023-04-15T00:24:29.335Z,79.61
2023-04-15T00:27:22.392Z,79.36
2023-04-15T00:30:10.657Z,78.84
2023-04-15T00:32:55.491Z,78.09
2023-04-15T00:35:28.127Z,77.63
2023-04-15T00:38:14.197Z,77.38
2023-04-15T00:41:07.787Z,77.28
2023-04-15T00:44:00.791Z,77.22
2023-04-15T00:46:48.132Z,77.15
2023-04-15T00:49:20.928Z,77.08
2023-04-15T00:52:16.214Z,77.12
2023-04-15T00:54:58.864Z,77.23
2023-04-15T00:57:52.122Z,77.26
2023-04-15T01:00:46.280Z,77.16
2023-04-15T01:03:32.390Z,77.14
2023-04-15T01:06:27.217Z,77.13
2023-04-15T01:09:03.529Z,77.18
2023-04-15T01:11:57.269Z,77.20
2023-04-15T01:14:50.326Z,76.94
2023-04-15T01:17:43.759Z,76.77
2023-04-15T01:20:37.719Z,76.77
2023-04-15T01:23:19.539Z,76.75
2023-04-15T01:26:13.061Z,76.63
2023-04-15T01:29:06.762Z,76.61
2023-04-15T01:31:59.548Z,76.61
2023-04-15T01:34:53.028Z,76.46
2023-04-15T01:37:29.491Z,76.40
2023-04-15T01:40:23.546Z,76.32
2023-04-15T01:43:16.840Z,76.55
2023-04-15T01:46:10.625Z,76.68
2023-04-15T01:49:03.460Z,76.62
2023-04-15T01:52:47.825Z,76.55
2023-04-15T01:55:22.054Z,76.43
2023-04-15T01:58:03.765Z,76.54
2023-04-15T02:00:50.316Z,76.46
2023-04-15T02:03:43.570Z,76.45
2023-04-15T02:06:36.782Z,76.52
2023-04-15T02:09:30.102Z,76.62
2023-04-15T02:12:23.186Z,76.78
2023-04-15T02:15:17.445Z,76.72
2023-04-15T02:18:11.972Z,76.80
2023-04-15T02:21:07.254Z,76.82
2023-04-15T02:24:00.003Z,76.49
2023-04-15T02:26:46.812Z,76.50
2023-04-15T02:29:23.648Z,76.52
2023-04-15T02:32:07.402Z,76.40
2023-04-15T02:34:51.998Z,76.44
2023-04-15T02:37:37.153Z,76.28
2023-04-15T02:40:30.857Z,76.05
2023-04-15T02:43:22.648Z,76.03
2023-04-15T02:46:15.440Z,76.07
2023-04-15T02:49:08.657Z,76.00
2023-04-15T02:52:01.719Z,76.06
2023-04-15T02:54:44.449Z,75.98
2023-04-15T02:57:39.223Z,75.93
2023-04-15T03:00:32.311Z,75.79
2023-04-15T03:03:11.089Z,75.72
2023-04-15T03:06:06.225Z,75.73
2023-04-15T03:08:50.476Z,75.35
2023-04-15T03:11:43.288Z,75.20
2023-04-15T03:14:35.973Z,75.16
2023-04-15T03:17:28.969Z,75.02
2023-04-15T03:20:22.024Z,74.95
2023-04-15T03:23:13.560Z,74.94
2023-04-15T03:26:07.074Z,74.98
2023-04-15T03:29:00.196Z,74.96
2023-04-15T03:31:53.252Z,74.86
2023-04-15T03:34:46.123Z,74.94
2023-04-15T03:37:38.809Z,75.01
2023-04-15T03:40:31.748Z,75.12
2023-04-15T03:43:24.329Z,75.05
2023-04-15T03:46:17.039Z,74.84
2023-04-15T03:49:10.940Z,74.70
2023-04-15T03:51:56.746Z,74.61
2023-04-15T03:54:51.577Z,74.54
2023-04-15T03:57:39.144Z,74.70
2023-04-15T04:00:22.915Z,74.65
2023-04-15T04:03:06.738Z,74.60
2023-04-15T04:05:59.662Z,74.51
2023-04-15T04:08:52.060Z,74.47
2023-04-15T04:11:45.834Z,74.64
2023-04-15T04:14:38.465Z,74.54
2023-04-15T04:17:31.119Z,74.31
2023-04-15T04:20:24.421Z,74.07
2023-04-15T04:23:09.289Z,73.94
2023-04-15T04:26:01.269Z,74.03
2023-04-15T04:28:52.942Z,74.24
2023-04-15T04:31:40.162Z,74.12
2023-04-15T04:34:26.728Z,73.84
2023-04-15T04:37:19.810Z,73.73
2023-04-15T04:40:14.261Z,73.88
2023-04-15T04:43:07.109Z,73.90
2023-04-15T04:45:41.392Z,73.93
2023-04-15T04:48:34.352Z,73.83
2023-04-15T04:51:28.183Z,73.79
2023-04-15T04:54:21.422Z,73.74
2023-04-15T04:57:10.245Z,73.52
2023-04-15T04:59:42.896Z,73.31
2023-04-15T05:02:36.621Z,72.89
2023-04-15T05:05:29.407Z,72.71
2023-04-15T05:08:22.266Z,72.50
2023-04-15T05:11:16.376Z,72.29
2023-04-15T05:14:09.513Z,72.02
2023-04-15T05:17:02.481Z,71.70
2023-04-15T05:19:55.128Z,71.42
2023-04-15T05:22:48.213Z,71.26
2023-04-15T05:25:32.504Z,71.15
2023-04-15T05:28:25.398Z,70.80
2023-04-15T05:31:08.802Z,70.37
2023-04-15T05:33:50.556Z,69.65
2023-04-15T05:36:26.600Z,69.34
2023-04-15T05:39:19.427Z,68.81
2023-04-15T05:42:12.269Z,68.36
2023-04-15T05:45:09.168Z,68.22
2023-04-15T05:47:54.467Z,67.82
2023-04-15T05:50:32.408Z,67.41
2023-04-15T05:53:16.352Z,67.19
2023-04-15T05:55:49.099Z,66.78
2023-04-15T05:58:24.724Z,66.75
2023-04-15T06:00:58.920Z,65.78
2023-04-15T06:03:33.814Z,65.07
2023-04-15T06:06:07.803Z,64.53
2023-04-15T06:08:40.664Z,64.13
2023-04-15T06:11:16.426Z,63.68
2023-04-15T06:13:51.922Z,63.22
2023-04-15T06:16:33.664Z,63.12
2023-04-15T06:19:06.350Z,62.39
2023-04-15T06:21:50.309Z,61.86
2023-04-15T06:24:25.649Z,62.15
2023-04-15T06:27:02.324Z,61.75
2023-04-15T06:29:34.831Z,61.49
2023-04-15T06:32:08.318Z,61.60
2023-04-15T06:34:43.820Z,60.92
2023-04-15T06:37:26.309Z,60.95
2023-04-15T06:40:02.454Z,61.01
2023-04-15T06:42:46.353Z,60.71
2023-04-15T06:45:22.161Z,60.48
2023-04-15T06:47:54.872Z,59.81
2023-04-15T06:50:32.907Z,59.17
2023-04-15T06:53:06.747Z,59.61
2023-04-15T06:55:42.841Z,59.60
2023-04-15T06:58:15.762Z,60.13
2023-04-15T07:00:48.880Z,60.48
2023-04-15T07:03:22.556Z,60.78
2023-04-15T07:05:57.921Z,61.29
2023-04-15T07:08:30.728Z,61.12
2023-04-15T07:11:03.472Z,61.95
2023-04-15T07:13:56.438Z,61.82
2023-04-15T07:16:32.431Z,62.05
2023-04-15T07:19:15.112Z,62.34
2023-04-15T07:21:59.184Z,61.66
2023-04-15T07:24:32.279Z,60.95
2023-04-15T07:27:05.423Z,59.74
2023-04-15T07:29:37.973Z,58.97
2023-04-15T07:32:15.613Z,60.14
2023-04-15T07:34:52.881Z,60.20
2023-04-15T07:37:25.800Z,60.50
2023-04-15T07:39:58.721Z,60.06
2023-04-15T07:42:42.620Z,60.42
2023-04-15T07:45:17.794Z,60.35
2023-04-15T07:47:50.980Z,60.54
2023-04-15T07:50:23.972Z,60.13
2023-04-15T07:52:57.478Z,60.49
2023-04-15T07:55:30.759Z,60.76
2023-04-15T07:58:03.319Z,60.33
2023-04-15T08:00:36.259Z,60.29
2023-04-15T08:03:09.417Z,60.10
2023-04-15T08:05:42.289Z,60.53
2023-04-15T08:08:18.153Z,60.99
2023-04-15T08:10:52.601Z,60.54
2023-04-15T08:13:26.046Z,60.02
2023-04-15T08:16:20.503Z,59.75
2023-04-15T08:18:56.765Z,59.89
2023-04-15T08:21:31.031Z,60.39
2023-04-15T08:24:03.890Z,60.39
2023-04-15T08:26:37.206Z,60.71
2023-04-15T08:29:10.986Z,59.84
2023-04-15T08:31:43.645Z,59.96
2023-04-15T08:34:16.532Z,60.32
2023-04-15T08:36:49.519Z,60.26
2023-04-15T08:39:25.680Z,59.50
2023-04-15T08:42:01.788Z,60.28
2023-04-15T08:44:38.423Z,59.45
2023-04-15T08:47:14.438Z,59.61
2023-04-15T08:49:53.817Z,59.69
2023-04-15T08:52:41.244Z,58.90
2023-04-15T08:55:15.595Z,57.55
2023-04-15T08:57:52.337Z,57.39
2023-04-15T09:00:26.087Z,57.33
2023-04-15T09:03:00.448Z,56.48
2023-04-15T09:05:35.596Z,55.62
2023-04-15T09:08:09.190Z,55.41
2023-04-15T09:10:41.789Z,55.61
2023-04-15T09:13:15.103Z,55.43
2023-04-15T09:15:48.121Z,53.90
2023-04-15T09:18:32.300Z,54.34
2023-04-15T09:21:12.998Z,55.31
2023-04-15T09:23:58.874Z,55.48
2023-04-15T09:26:40.413Z,55.77
2023-04-15T09:29:22.279Z,55.79
2023-04-15T09:31:54.887Z,55.22
2023-04-15T09:34:38.128Z,54.22
2023-04-15T09:37:31.300Z,53.72
2023-04-15T09:40:05.216Z,54.78
2023-04-15T09:42:38.189Z,53.32
2023-04-15T09:45:15.690Z,52.44
2023-04-15T09:47:49.183Z,52.14
2023-04-15T09:50:32.750Z,52.44
2023-04-15T09:53:06.638Z,52.96
2023-04-15T09:55:52.559Z,52.34
2023-04-15T09:58:27.517Z,52.17
2023-04-15T10:01:01.919Z,51.78
2023-04-15T10:03:37.006Z,51.86
2023-04-15T10:06:10.746Z,51.97
2023-04-15T10:08:55.497Z,51.64
2023-04-15T10:11:31.924Z,52.16
2023-04-15T10:14:06.125Z,52.58
2023-04-15T10:16:44.917Z,52.42
2023-04-15T10:19:24.397Z,52.67
2023-04-15T10:21:57.790Z,52.69
2023-04-15T10:24:32.638Z,51.93
2023-04-15T10:27:09.436Z,51.95
2023-04-15T10:29:42.427Z,50.86
2023-04-15T10:32:16.021Z,50.49
2023-04-15T10:34:54.489Z,50.98
2023-04-15T10:37:37.833Z,48.80
2023-04-15T10:40:31.577Z,49.27
2023-04-15T10:43:05.822Z,49.41
2023-04-15T10:45:49.456Z,49.09
2023-04-15T10:48:22.385Z,48.46
2023-04-15T10:51:02.235Z,49.19
2023-04-15T10:54:00.869Z,49.14
2023-04-15T10:56:45.122Z,49.05
2023-04-15T10:59:32.793Z,47.75
2023-04-15T11:02:17.191Z,46.33
2023-04-15T11:05:01.151Z,46.79
2023-04-15T11:07:58.638Z,47.74
2023-04-15T11:10:57.838Z,47.33
2023-04-15T11:13:54.255Z,48.02
2023-04-15T11:16:48.635Z,48.02
2023-04-15T11:19:39.427Z,48.15
2023-04-15T11:22:21.230Z,48.19
2023-04-15T11:25:06.249Z,47.93
2023-04-15T11:27:38.886Z,48.26
2023-04-15T11:30:24.834Z,48.30
2023-04-15T11:33:01.246Z,47.59
2023-04-15T11:35:34.820Z,47.49
2023-04-15T11:38:10.205Z,48.14
2023-04-15T11:40:46.343Z,47.59
2023-04-15T11:43:21.837Z,47.28
2023-04-15T11:46:06.057Z,45.93
2023-04-15T11:48:43.502Z,46.87
2023-04-15T11:51:16.763Z,46.60
2023-04-15T11:53:51.175Z,46.00
2023-04-15T11:56:25.706Z,47.00
2023-04-15T11:59:09.482Z,47.63
2023-04-15T12:01:45.409Z,47.61
2023-04-15T12:04:38.435Z,48.12
2023-04-15T12:07:14.195Z,48.91
2023-04-15T12:10:02.067Z,48.75
2023-04-15T12:12:45.381Z,48.77
2023-04-15T12:15:18.638Z,48.94
2023-04-15T12:17:56.108Z,49.43
2023-04-15T12:20:32.189Z,49.68
2023-04-15T12:23:09.931Z,49.69
2023-04-15T12:25:42.830Z,49.50
2023-04-15T12:28:15.838Z,49.49
2023-04-15T12:30:54.059Z,49.49
2023-04-15T12:33:37.417Z,51.19
2023-04-15T12:36:12.893Z,52.85
2023-04-15T12:38:45.468Z,53.78
2023-04-15T12:41:26.324Z,54.87
2023-04-15T12:43:58.999Z,54.93
2023-04-15T12:46:33.796Z,55.12
2023-04-15T12:49:19.795Z,56.60
2023-04-15T12:51:57.279Z,57.29
2023-04-15T12:54:41.258Z,57.54
2023-04-15T12:57:14.025Z,57.93
2023-04-15T12:59:46.535Z,57.88
2023-04-15T13:02:25.689Z,56.61
2023-04-15T13:04:58.902Z,58.30
2023-04-15T13:07:36.686Z,59.99
2023-04-15T13:10:11.954Z,62.63
2023-04-15T13:12:46.920Z,64.16
2023-04-15T13:15:21.036Z,64.25
2023-04-15T13:17:54.044Z,63.90
2023-04-15T13:20:27.795Z,63.43
2023-04-15T13:23:01.694Z,62.72
2023-04-15T13:25:34.248Z,62.55
2023-04-15T13:28:06.904Z,62.47
2023-04-15T13:30:43.035Z,62.48
2023-04-15T13:33:16.881Z,63.20
2023-04-15T13:35:50.550Z,63.29
2023-04-15T13:38:23.158Z,62.60
2023-04-15T13:40:58.027Z,63.16
2023-04-15T13:43:30.714Z,63.57
2023-04-15T13:46:04.830Z,63.88
2023-04-15T13:48:37.536Z,63.85
2023-04-15T13:51:10.678Z,63.72
2023-04-15T13:53:43.064Z,63.32
2023-04-15T13:56:16.162Z,63.22
2023-04-15T13:58:49.995Z,62.60
2023-04-15T14:01:22.520Z,62.49
2023-04-15T14:03:55.199Z,62.39
2023-04-15T14:06:28.712Z,62.06
2023-04-15T14:09:01.086Z,61.75
2023-04-15T14:11:37.834Z,61.72
2023-04-15T14:14:11.817Z,61.98
2023-04-15T14:16:44.546Z,62.52
2023-04-15T14:19:17.309Z,62.81
2023-04-15T14:21:49.969Z,62.57
2023-04-15T14:24:24.502Z,62.53
2023-04-15T14:26:57.628Z,62.55
2023-04-15T14:29:31.174Z,62.84
2023-04-15T14:32:11.414Z,62.82
2023-04-15T14:34:47.362Z,63.02
2023-04-15T14:37:19.862Z,63.53
2023-04-15T14:39:52.645Z,63.77
2023-04-15T14:42:25.015Z,64.16
2023-04-15T14:45:12.360Z,64.49
2023-04-15T14:47:56.123Z,64.54
2023-04-15T14:50:28.874Z,64.81
2023-04-15T14:53:01.674Z,65.10
2023-04-15T14:55:35.559Z,65.53
2023-04-15T14:58:08.328Z,65.96
2023-04-15T15:00:44.570Z,65.98
2023-04-15T15:03:17.141Z,66.38
2023-04-15T15:05:49.745Z,66.76
2023-04-15T15:08:23.188Z,66.79
2023-04-15T15:10:58.863Z,67.03
2023-04-15T15:13:31.686Z,67.06
2023-04-15T15:16:04.242Z,67.17
2023-04-15T15:18:37.210Z,67.11
2023-04-15T15:21:11.599Z,67.10
2023-04-15T15:23:44.444Z,66.87
2023-04-15T15:26:19.670Z,66.93
2023-04-15T15:28:52.564Z,67.32
2023-04-15T15:31:30.059Z,67.50
2023-04-15T15:34:22.809Z,67.36
2023-04-15T15:36:55.546Z,67.80
2023-04-15T15:39:28.934Z,67.77
2023-04-15T15:42:01.655Z,67.51
2023-04-15T15:44:36.338Z,67.68
2023-04-15T15:47:11.908Z,68.00
2023-04-15T15:49:57.041Z,67.74
2023-04-15T15:52:29.808Z,67.71
2023-04-15T15:55:03.277Z,67.69
2023-04-15T15:57:35.834Z,67.40
2023-04-15T16:00:12.543Z,67.44
2023-04-15T16:05:43.574Z,66.96
2023-04-15T16:08:16.107Z,66.71
2023-04-15T16:10:49.023Z,66.56
2023-04-15T16:13:21.700Z,66.51
2023-04-15T16:15:56.657Z,66.43
2023-04-15T16:18:29.595Z,66.36
2023-04-15T16:21:02.412Z,66.37
2023-04-15T16:23:35.453Z,66.41
2023-04-15T16:26:08.007Z,66.53
2023-04-15T16:28:40.724Z,66.70
2023-04-15T16:31:13.765Z,66.78
2023-04-15T16:33:46.411Z,67.04
2023-04-15T16:36:21.436Z,67.46
2023-04-15T16:38:56.778Z,67.89
2023-04-15T16:41:34.331Z,68.10
2023-04-15T16:44:09.315Z,68.39
2023-04-15T16:46:42.969Z,68.79
2023-04-15T16:49:16.144Z,69.18
2023-04-15T16:51:54.126Z,69.25
2023-04-15T16:54:29.171Z,69.44
2023-04-15T16:57:03.654Z,69.58
2023-04-15T16:59:39.006Z,69.70
2023-04-15T17:02:13.789Z,70.05
2023-04-15T17:04:46.774Z,70.40
2023-04-15T17:07:39.573Z,70.60
2023-04-15T17:10:17.120Z,70.87
2023-04-15T17:13:10.465Z,71.24
2023-04-15T17:15:46.095Z,71.85
2023-04-15T17:18:28.738Z,72.13
2023-04-15T17:21:03.685Z,72.53
2023-04-15T17:23:46.844Z,72.68
2023-04-15T17:26:20.114Z,73.00
2023-04-15T17:28:55.936Z,73.33
2023-04-15T17:31:41.189Z,73.31
2023-04-15T17:34:49.792Z,73.59
2023-04-15T17:37:37.094Z,73.92
2023-04-15T17:40:22.362Z,74.15
2023-04-15T17:43:06.006Z,74.45
2023-04-15T17:45:59.655Z,74.50
2023-04-15T17:48:32.399Z,74.67
2023-04-15T17:51:06.848Z,74.75
2023-04-15T17:53:39.524Z,74.94
2023-04-15T17:56:22.379Z,75.10
2023-04-15T17:58:54.913Z,75.35
2023-04-15T18:01:29.899Z,75.64
2023-04-15T18:04:04.190Z,75.78
2023-04-15T18:06:57.871Z,75.81
2023-04-15T18:09:30.535Z,76.25
2023-04-15T18:12:07.821Z,76.60
2023-04-15T18:14:43.480Z,76.94
2023-04-15T18:17:15.937Z,77.16
2023-04-15T18:19:48.544Z,77.46
2023-04-15T18:22:24.588Z,77.70
2023-04-15T18:24:59.228Z,78.08
2023-04-15T18:27:36.073Z,78.62
2023-04-15T18:30:11.399Z,79.05
2023-04-15T18:32:46.685Z,79.57
2023-04-15T18:35:31.018Z,79.89
2023-04-15T18:38:03.869Z,80.43
2023-04-15T18:40:36.373Z,80.72
2023-04-15T18:43:09.686Z,80.83
2023-04-15T18:45:43.562Z,81.03
2023-04-15T18:48:17.655Z,81.17
2023-04-15T18:50:54.233Z,81.20
2023-04-15T18:53:48.768Z,81.04
2023-04-15T18:56:33.919Z,80.90
2023-04-15T18:59:27.785Z,80.73
2023-04-15T19:02:13.765Z,80.63
2023-04-15T19:04:49.145Z,80.56
2023-04-15T19:07:36.837Z,80.34
2023-04-15T19:10:10.755Z,80.34
2023-04-15T19:12:43.272Z,81.16
2023-04-15T19:15:17.152Z,80.47
2023-04-15T19:17:50.243Z,80.40
2023-04-15T19:20:24.200Z,80.47
2023-04-15T19:22:57.738Z,80.62
2023-04-15T19:25:30.244Z,80.91
2023-04-15T19:28:05.397Z,81.12
2023-04-15T19:30:38.904Z,81.21
2023-04-15T19:33:23.465Z,81.35
2023-04-15T19:35:59.593Z,81.47
2023-04-15T19:38:36.332Z,81.94
2023-04-15T19:41:11.498Z,82.42
2023-04-15T19:43:54.987Z,82.67
2023-04-15T19:46:30.894Z,83.03
2023-04-15T19:49:04.240Z,83.21
2023-04-15T19:51:38.304Z,83.38
2023-04-15T19:54:13.855Z,83.45
2023-04-15T19:56:46.402Z,83.32
2023-04-15T19:59:21.416Z,83.40
2023-04-15T20:01:58.218Z,83.43
2023-04-15T20:04:34.182Z,83.35
2023-04-15T20:07:07.307Z,83.31
2023-04-15T20:09:39.710Z,83.27
2023-04-15T20:12:51.136Z,83.24
2023-04-15T20:15:09.512Z,83.24
2023-04-15T20:17:41.955Z,83.17
2023-04-15T20:20:27.672Z,83.16
2023-04-15T20:23:10.644Z,83.01
2023-04-15T20:25:46.092Z,83.03
2023-04-15T20:28:30.746Z,83.04
2023-04-15T20:31:03.892Z,83.22
2023-04-15T20:33:37.310Z,83.34
2023-04-15T20:36:09.915Z,83.47
2023-04-15T20:38:42.334Z,83.41
2023-04-15T20:41:16.602Z,83.04
2023-04-15T20:43:49.311Z,82.65
2023-04-15T20:46:22.727Z,82.42
2023-04-15T20:48:56.343Z,82.51
2023-04-15T20:51:33.143Z,82.59
2023-04-15T20:54:08.829Z,82.85
2023-04-15T20:56:41.346Z,82.82
2023-04-15T20:59:13.956Z,83.05
2023-04-15T21:01:46.924Z,83.41
2023-04-15T21:04:31.407Z,83.44
2023-04-15T21:07:03.765Z,83.59
2023-04-15T21:09:36.506Z,83.62
2023-04-15T21:12:12.330Z,83.61
2023-04-15T21:14:44.740Z,83.60
2023-04-15T21:17:18.507Z,83.76
2023-04-15T21:19:50.964Z,83.79
2023-04-15T21:22:23.518Z,83.91
2023-04-15T21:24:57.036Z,83.84
2023-04-15T21:27:29.530Z,83.79
2023-04-15T21:30:05.181Z,83.88
2023-04-15T21:32:40.403Z,83.80
2023-04-15T21:35:13.364Z,83.88
2023-04-15T21:37:46.132Z,83.86
2023-04-15T21:40:29.244Z,83.71
2023-04-15T21:43:04.819Z,83.64
2023-04-15T21:45:39.624Z,83.54
2023-04-15T21:48:14.014Z,83.57
2023-04-15T21:50:46.608Z,83.44
2023-04-15T21:53:19.374Z,83.61
2023-04-15T21:55:52.366Z,83.94
2023-04-15T21:58:27.346Z,83.66
2023-04-15T22:01:00.380Z,83.44
2023-04-15T22:03:34.980Z,83.29
2023-04-15T22:06:09.269Z,83.18
2023-04-15T22:08:55.200Z,83.16
2023-04-15T22:11:32.584Z,83.11
2023-04-15T22:14:07.061Z,83.06
2023-04-15T22:16:39.573Z,83.08
2023-04-15T22:19:14.737Z,83.06
2023-04-15T22:21:47.360Z,83.34
2023-04-15T22:24:38.222Z,83.32
2023-04-15T22:27:14.535Z,83.31
2023-04-15T22:29:50.392Z,83.24
2023-04-15T22:32:22.691Z,83.34
2023-04-15T22:34:56.612Z,83.44
2023-04-15T22:37:30.713Z,83.63
2023-04-15T22:40:06.939Z,83.67
2023-04-15T22:42:39.849Z,83.73
2023-04-15T22:45:27.527Z,83.60
2023-04-15T22:48:00.259Z,83.71
2023-04-15T22:50:33.040Z,83.64
2023-04-15T22:53:06.132Z,83.55
2023-04-15T22:55:51.958Z,83.59
2023-04-15T22:58:25.123Z,83.64
2023-04-15T23:00:59.341Z,83.58
2023-04-15T23:03:32.215Z,83.66
2023-04-15T23:06:14.595Z,83.83
2023-04-15T23:08:47.888Z,84.02
2023-04-15T23:11:20.848Z,84.21
2023-04-15T23:13:58.354Z,84.44
2023-04-15T23:16:31.342Z,84.59
2023-04-15T23:19:06.365Z,84.69
2023-04-15T23:21:41.131Z,85.32
2023-04-15T23:24:16.695Z,85.78
2023-04-15T23:26:49.575Z,85.92
2023-04-15T23:29:23.488Z,86.11
2023-04-15T23:31:59.538Z,86.12
2023-04-15T23:34:32.127Z,85.89
2023-04-15T23:37:06.009Z,85.74
2023-04-15T23:39:48.008Z,85.65
2023-04-15T23:42:24.278Z,85.59
2023-04-15T23:44:57.246Z,85.46
2023-04-15T23:47:29.703Z,85.46
2023-04-15T23:50:02.655Z,85.41
2023-04-15T23:52:45.015Z,85.38
2023-04-15T23:55:17.952Z,85.26
2023-04-15T23:57:50.414Z,85.05
